createdAt,value
2019-05-17T00:00:51.949Z,16.30
2019-05-17T00:01:57.763Z,16.30
2019-05-17T00:03:02.620Z,16.30
2019-05-17T00:04:07.334Z,16.30
2019-05-17T00:05:12.289Z,16.30
2019-05-17T00:06:16.988Z,16.30
2019-05-17T00:07:21.571Z,16.30
2019-05-17T00:08:34.432Z,16.30
2019-05-17T00:09:32.722Z,16.30
2019-05-17T00:10:37.786Z,16.30
2019-05-17T00:11:42.408Z,16.30
2019-05-17T00:12:47.267Z,16.30
2019-05-17T00:13:51.900Z,16.30
2019-05-17T00:14:56.381Z,16.30
2019-05-17T00:16:00.907Z,16.30
2019-05-17T00:17:06.680Z,16.30
2019-05-17T00:18:11.345Z,16.30
2019-05-17T00:19:16.936Z,16.30
2019-05-17T00:20:21.759Z,16.30
2019-05-17T00:21:27.546Z,16.30
2019-05-17T00:22:32.297Z,16.30
2019-05-17T00:23:38.091Z,16.30
2019-05-17T00:24:42.607Z,16.30
2019-05-17T00:25:47.064Z,16.30
2019-05-17T00:26:51.676Z,16.30
2019-05-17T00:27:57.465Z,16.30
2019-05-17T00:29:02.077Z,16.30
2019-05-17T00:30:08.433Z,16.30
2019-05-17T00:31:13.015Z,16.30
2019-05-17T00:32:17.356Z,16.30
2019-05-17T00:33:21.798Z,16.30
2019-05-17T00:34:27.054Z,16.30
2019-05-17T00:35:31.750Z,16.30
2019-05-17T00:36:37.448Z,16.30
2019-05-17T00:37:42.211Z,16.30
2019-05-17T00:38:50.969Z,16.20
2019-05-17T00:39:52.525Z,16.20
2019-05-17T00:40:56.861Z,16.30
2019-05-17T00:42:01.322Z,16.20
2019-05-17T00:43:06.778Z,16.20
2019-05-17T00:44:11.643Z,16.20
2019-05-17T00:45:17.631Z,16.20
2019-05-17T00:46:22.399Z,16.20
2019-05-17T00:47:26.692Z,16.20
2019-05-17T00:48:31.201Z,16.20
2019-05-17T00:49:37.201Z,16.20
2019-05-17T00:50:41.930Z,16.20
2019-05-17T00:51:47.464Z,16.20
2019-05-17T00:52:51.997Z,16.30
2019-05-17T00:53:56.417Z,16.20
2019-05-17T00:55:00.849Z,16.30
2019-05-17T00:56:06.649Z,16.20
2019-05-17T00:57:11.306Z,16.20
2019-05-17T00:58:17.334Z,16.30
2019-05-17T00:59:21.767Z,16.30
2019-05-17T01:00:27.819Z,16.20
2019-05-17T01:01:32.185Z,16.20
2019-05-17T01:02:36.618Z,16.20
2019-05-17T01:03:41.212Z,16.20
2019-05-17T01:04:47.528Z,16.20
2019-05-17T01:05:51.553Z,16.20
2019-05-17T01:06:56.276Z,16.20
2019-05-17T01:08:00.919Z,16.20
2019-05-17T01:09:07.775Z,16.10
2019-05-17T01:10:12.797Z,16.20
2019-05-17T01:11:17.061Z,16.20
2019-05-17T01:12:21.501Z,16.20
2019-05-17T01:13:26.696Z,16.20
2019-05-17T01:14:31.439Z,16.20
2019-05-17T01:15:36.937Z,16.20
2019-05-17T01:16:41.717Z,16.10
2019-05-17T01:17:47.299Z,16.10
2019-05-17T01:18:51.970Z,16.10
2019-05-17T01:19:57.398Z,16.10
2019-05-17T01:21:03.507Z,16.10
2019-05-17T01:22:07.801Z,16.10
2019-05-17T01:23:12.244Z,16.10
2019-05-17T01:24:17.357Z,16.10
2019-05-17T01:25:22.081Z,16.10
2019-05-17T01:26:26.773Z,16.10
2019-05-17T01:27:31.428Z,16.10
2019-05-17T01:28:36.331Z,16.10
2019-05-17T01:29:40.951Z,16.10
2019-05-17T01:30:46.372Z,16.10
2019-05-17T01:31:51.004Z,16.10
2019-05-17T01:32:57.035Z,16.10
2019-05-17T01:34:01.603Z,16.10
2019-05-17T01:35:07.201Z,16.10
2019-05-17T01:36:12.109Z,16.10
2019-05-17T01:37:17.226Z,16.10
2019-05-17T01:38:21.833Z,16.10
2019-05-17T01:39:26.872Z,16.10
2019-05-17T01:40:31.672Z,16.10
2019-05-17T01:41:37.262Z,16.10
2019-05-17T01:42:41.961Z,16.10
2019-05-17T01:43:47.473Z,16.10
2019-05-17T01:44:52.049Z,16.10
2019-05-17T01:45:57.438Z,16.10
2019-05-17T01:47:02.123Z,16.10
2019-05-17T01:48:07.311Z,16.10
2019-05-17T01:49:12.070Z,16.10
2019-05-17T01:50:17.474Z,16.10
2019-05-17T01:51:22.210Z,16.10
2019-05-17T01:52:27.296Z,16.10
2019-05-17T01:53:31.925Z,16.10
2019-05-17T01:54:36.342Z,16.10
2019-05-17T01:55:41.927Z,16.10
2019-05-17T01:56:46.291Z,16.10
2019-05-17T01:57:50.872Z,16.00
2019-05-17T01:58:57.385Z,16.10
2019-05-17T02:00:01.242Z,16.00
2019-05-17T02:01:07.631Z,16.00
2019-05-17T02:02:31.398Z,16.00
2019-05-17T02:03:37.458Z,16.00
2019-05-17T02:04:41.796Z,16.00
2019-05-17T02:05:47.350Z,16.00
2019-05-17T02:06:52.020Z,16.00
2019-05-17T02:07:56.992Z,16.00
2019-05-17T02:09:01.632Z,16.00
2019-05-17T02:10:07.506Z,16.00
2019-05-17T02:11:12.171Z,16.00
2019-05-17T02:12:17.315Z,16.00
2019-05-17T02:13:21.941Z,16.00
2019-05-17T02:14:26.752Z,16.00
2019-05-17T02:15:31.396Z,16.00
2019-05-17T02:16:37.646Z,15.90
2019-05-17T02:17:41.868Z,15.90
2019-05-17T02:18:46.587Z,15.90
2019-05-17T02:19:51.394Z,16.00
2019-05-17T02:20:57.046Z,15.90
2019-05-17T02:22:01.730Z,16.00
2019-05-17T02:23:07.330Z,16.00
2019-05-17T02:24:12.010Z,16.00
2019-05-17T02:25:17.078Z,16.00
2019-05-17T02:26:21.489Z,16.00
2019-05-17T02:27:32.144Z,16.00
2019-05-17T02:28:32.310Z,16.00
2019-05-17T02:29:36.636Z,16.00
2019-05-17T02:30:44.115Z,16.00
2019-05-17T02:31:48.177Z,16.00
2019-05-17T02:32:54.199Z,16.00
2019-05-17T02:33:59.147Z,16.00
2019-05-17T02:35:04.040Z,16.00
2019-05-17T02:36:08.479Z,16.00
2019-05-17T02:37:13.649Z,16.00
2019-05-17T02:38:18.050Z,16.00
2019-05-17T02:39:23.307Z,16.00
2019-05-17T02:40:27.810Z,16.00
2019-05-17T02:41:33.602Z,16.00
2019-05-17T02:42:37.864Z,16.00
2019-05-17T02:43:43.379Z,16.10
2019-05-17T02:44:47.836Z,16.10
2019-05-17T02:45:52.933Z,16.00
2019-05-17T02:46:57.297Z,16.00
2019-05-17T02:48:03.875Z,16.00
2019-05-17T02:49:13.437Z,16.00
2019-05-17T02:50:17.173Z,16.00
2019-05-17T02:51:23.693Z,16.00
2019-05-17T02:52:27.633Z,16.10
2019-05-17T02:53:33.489Z,16.00
2019-05-17T02:54:38.068Z,16.00
2019-05-17T02:55:43.503Z,16.00
2019-05-17T02:56:48.228Z,16.10
2019-05-17T02:57:53.052Z,16.00
2019-05-17T02:58:57.657Z,16.00
2019-05-17T03:00:04.514Z,16.00
2019-05-17T03:01:08.055Z,16.00
2019-05-17T03:02:12.803Z,16.00
2019-05-17T03:03:17.412Z,16.00
2019-05-17T03:04:23.578Z,16.00
2019-05-17T03:05:27.969Z,16.00
2019-05-17T03:06:32.936Z,16.00
2019-05-17T03:07:37.682Z,16.00
2019-05-17T03:08:42.922Z,16.00
2019-05-17T03:09:47.464Z,16.00
2019-05-17T03:10:53.415Z,16.00
2019-05-17T03:11:57.858Z,16.00
2019-05-17T03:13:04.107Z,16.00
2019-05-17T03:14:12.764Z,16.00
2019-05-17T03:15:17.422Z,16.00
2019-05-17T03:16:23.582Z,16.00
2019-05-17T03:17:27.752Z,16.00
2019-05-17T03:18:33.428Z,16.00
2019-05-17T03:19:38.165Z,16.00
2019-05-17T03:20:43.110Z,16.00
2019-05-17T03:21:47.661Z,16.00
2019-05-17T03:22:52.692Z,16.00
2019-05-17T03:23:57.193Z,16.00
2019-05-17T03:25:03.363Z,16.00
2019-05-17T03:26:07.641Z,16.00
2019-05-17T03:27:13.408Z,16.00
2019-05-17T03:28:18.101Z,16.00
2019-05-17T03:29:22.957Z,16.00
2019-05-17T03:30:27.383Z,16.00
2019-05-17T03:31:40.710Z,16.00
2019-05-17T03:32:46.435Z,16.00
2019-05-17T03:33:46.606Z,16.10
2019-05-17T03:34:55.865Z,16.10
2019-05-17T03:35:58.296Z,16.10
2019-05-17T03:37:06.644Z,16.10
2019-05-17T03:38:08.955Z,16.10
2019-05-17T03:39:13.338Z,16.10
2019-05-17T03:40:55.230Z,16.10
2019-05-17T03:41:29.286Z,16.10
2019-05-17T03:42:33.198Z,16.10
2019-05-17T03:43:41.219Z,16.10
2019-05-17T03:44:43.977Z,16.10
2019-05-17T03:45:48.379Z,16.10
2019-05-17T03:46:53.317Z,16.10
2019-05-17T03:47:57.665Z,16.10
2019-05-17T03:49:04.071Z,16.20
2019-05-17T03:50:08.665Z,16.10
2019-05-17T03:51:13.318Z,16.10
2019-05-17T03:52:17.592Z,16.10
2019-05-17T03:53:22.907Z,16.20
2019-05-17T03:54:27.557Z,16.10
2019-05-17T03:55:33.139Z,16.20
2019-05-17T03:56:37.911Z,16.20
2019-05-17T03:57:44.239Z,16.20
2019-05-17T03:58:48.375Z,16.20
2019-05-17T03:59:52.873Z,16.20
2019-05-17T04:00:57.191Z,16.20
2019-05-17T04:02:03.318Z,16.20
2019-05-17T04:03:07.545Z,16.20
2019-05-17T04:04:13.392Z,16.20
2019-05-17T04:05:18.112Z,16.20
2019-05-17T04:06:23.761Z,16.20
2019-05-17T04:07:28.491Z,16.20
2019-05-17T04:08:33.577Z,16.20
2019-05-17T04:09:38.028Z,16.20
2019-05-17T04:10:42.734Z,16.20
2019-05-17T04:11:47.019Z,16.20
2019-05-17T04:12:53.063Z,16.20
2019-05-17T04:13:57.579Z,16.20
2019-05-17T04:15:03.200Z,16.20
2019-05-17T04:16:09.493Z,16.20
2019-05-17T04:17:14.442Z,16.20
2019-05-17T04:18:18.701Z,16.20
2019-05-17T04:19:23.548Z,16.20
2019-05-17T04:20:27.782Z,16.20
2019-05-17T04:21:34.120Z,16.20
2019-05-17T04:22:38.312Z,16.20
2019-05-17T04:23:43.110Z,16.20
2019-05-17T04:24:47.617Z,16.30
2019-05-17T04:25:53.169Z,16.30
2019-05-17T04:26:57.904Z,16.30
2019-05-17T04:28:03.132Z,16.30
2019-05-17T04:29:07.747Z,16.30
2019-05-17T04:30:12.757Z,16.30
2019-05-17T04:31:17.308Z,16.40
2019-05-17T04:32:23.370Z,16.40
2019-05-17T04:33:27.950Z,16.40
2019-05-17T04:34:33.571Z,16.40
2019-05-17T04:35:38.287Z,16.40
2019-05-17T04:36:43.296Z,16.40
2019-05-17T04:37:47.781Z,16.40
2019-05-17T04:38:52.673Z,16.40
2019-05-17T04:39:57.326Z,16.40
2019-05-17T04:41:03.251Z,16.40
2019-05-17T04:42:08.091Z,16.40
2019-05-17T04:43:13.542Z,16.40
2019-05-17T04:44:18.211Z,16.40
2019-05-17T04:45:23.340Z,16.40
2019-05-17T04:46:27.765Z,16.50
2019-05-17T04:47:33.282Z,16.50
2019-05-17T04:48:37.736Z,16.50
2019-05-17T04:49:44.000Z,16.50
2019-05-17T04:50:48.205Z,16.50
2019-05-17T04:51:52.973Z,16.50
2019-05-17T04:52:57.383Z,16.50
2019-05-17T04:54:03.312Z,16.60
2019-05-17T04:55:07.931Z,16.60
2019-05-17T04:56:14.161Z,16.60
2019-05-17T04:57:18.345Z,16.70
2019-05-17T04:58:23.441Z,16.70
2019-05-17T04:59:27.948Z,16.70
2019-05-17T05:00:34.165Z,16.80
2019-05-17T05:01:38.508Z,16.80
2019-05-17T05:02:44.399Z,16.80
2019-05-17T05:03:48.858Z,16.90
2019-05-17T05:04:53.613Z,16.90
2019-05-17T05:05:57.905Z,17.00
2019-05-17T05:07:03.185Z,16.90
2019-05-17T05:08:07.629Z,17.00
2019-05-17T05:09:12.824Z,17.00
2019-05-17T05:10:18.881Z,17.00
2019-05-17T05:11:23.542Z,17.10
2019-05-17T05:12:27.920Z,17.10
2019-05-17T05:13:33.367Z,17.10
2019-05-17T05:14:37.907Z,17.10
2019-05-17T05:15:48.056Z,17.10
2019-05-17T05:16:53.960Z,17.20
2019-05-17T05:17:58.475Z,17.20
2019-05-17T05:19:03.145Z,17.20
2019-05-17T05:20:08.299Z,17.30
2019-05-17T05:21:12.582Z,17.30
2019-05-17T05:22:17.754Z,17.30
2019-05-17T05:23:24.128Z,17.30
2019-05-17T05:24:28.774Z,17.30
2019-05-17T05:25:34.646Z,17.30
2019-05-17T05:26:39.090Z,17.40
2019-05-17T05:27:43.369Z,17.40
2019-05-17T05:28:49.680Z,17.40
2019-05-17T05:29:53.728Z,17.50
2019-05-17T05:30:58.176Z,17.40
2019-05-17T05:32:02.740Z,17.50
2019-05-17T05:33:07.413Z,17.60
2019-05-17T05:34:12.320Z,17.60
2019-05-17T05:35:16.978Z,17.70
2019-05-17T05:36:22.047Z,17.70
2019-05-17T05:37:28.210Z,17.70
2019-05-17T05:38:32.466Z,17.70
2019-05-17T05:39:36.975Z,17.80
2019-05-17T05:40:41.531Z,17.80
2019-05-17T05:41:46.027Z,17.90
2019-05-17T05:42:51.574Z,17.90
2019-05-17T05:43:56.220Z,17.90
2019-05-17T05:45:02.934Z,17.90
2019-05-17T05:46:06.917Z,17.90
2019-05-17T05:47:11.696Z,17.90
2019-05-17T05:48:16.229Z,18.00
2019-05-17T05:49:21.720Z,17.90
2019-05-17T05:50:26.396Z,18.00
2019-05-17T05:51:32.059Z,18.00
2019-05-17T05:52:36.705Z,18.00
2019-05-17T05:53:41.944Z,18.00
2019-05-17T05:54:49.439Z,18.00
2019-05-17T05:55:55.397Z,18.00
2019-05-17T05:57:02.302Z,18.00
2019-05-17T05:58:05.984Z,18.00
2019-05-17T05:59:12.140Z,18.00
2019-05-17T06:00:18.553Z,18.00
2019-05-17T06:01:23.198Z,18.00
2019-05-17T06:02:27.719Z,18.00
2019-05-17T06:03:32.276Z,17.90
2019-05-17T06:04:36.605Z,17.90
2019-05-17T06:05:44.755Z,17.90
2019-05-17T06:06:49.191Z,17.90
2019-05-17T06:07:53.737Z,17.90
2019-05-17T06:08:58.286Z,17.90
2019-05-17T06:10:03.271Z,17.90
2019-05-17T06:11:07.601Z,17.90
2019-05-17T06:12:23.384Z,18.00
2019-05-17T06:13:17.979Z,18.00
2019-05-17T06:14:22.525Z,18.00
2019-05-17T06:15:27.039Z,18.00
2019-05-17T06:16:32.989Z,18.00
2019-05-17T06:17:37.344Z,18.00
2019-05-17T06:18:42.458Z,18.10
2019-05-17T06:19:48.677Z,18.10
2019-05-17T06:20:54.532Z,18.10
2019-05-17T06:22:02.533Z,18.10
2019-05-17T06:23:05.377Z,18.10
2019-05-17T06:24:12.181Z,18.10
2019-05-17T06:25:16.870Z,18.20
2019-05-17T06:26:23.862Z,18.20
2019-05-17T06:27:32.002Z,18.30
2019-05-17T06:28:34.489Z,18.40
2019-05-17T06:29:41.378Z,18.50
2019-05-17T06:30:45.399Z,18.60
2019-05-17T06:31:51.874Z,18.70
2019-05-17T06:32:56.379Z,18.70
2019-05-17T06:34:01.968Z,18.80
2019-05-17T06:35:07.536Z,18.90
2019-05-17T06:36:13.639Z,19.00
2019-05-17T06:37:18.295Z,19.00
2019-05-17T06:38:24.825Z,19.10
2019-05-17T06:39:29.273Z,19.10
2019-05-17T06:40:33.859Z,19.10
2019-05-17T06:41:38.347Z,19.20
2019-05-17T06:42:58.112Z,19.20
2019-05-17T06:43:49.125Z,19.30
2019-05-17T06:44:53.707Z,19.30
2019-05-17T06:46:01.810Z,19.40
2019-05-17T06:47:06.971Z,19.40
2019-05-17T06:48:11.906Z,19.40
2019-05-17T06:49:17.465Z,19.50
2019-05-17T06:50:23.603Z,19.50
2019-05-17T06:51:31.606Z,19.50
2019-05-17T06:52:36.219Z,19.50
2019-05-17T06:53:40.677Z,19.40
2019-05-17T06:54:44.932Z,19.40
2019-05-17T06:55:53.414Z,19.40
2019-05-17T06:56:58.214Z,19.40
2019-05-17T06:58:02.844Z,19.30
2019-05-17T06:59:08.637Z,19.20
2019-05-17T07:00:20.772Z,19.20
2019-05-17T07:01:20.223Z,19.20
2019-05-17T07:02:26.917Z,19.20
2019-05-17T07:03:35.961Z,19.20
2019-05-17T07:04:43.445Z,19.10
2019-05-17T07:05:50.922Z,19.10
2019-05-17T07:07:13.391Z,19.10
2019-05-17T07:08:20.999Z,19.10
2019-05-17T07:09:25.725Z,19.10
2019-05-17T07:10:30.254Z,19.10
2019-05-17T07:11:35.207Z,19.10
2019-05-17T07:12:54.617Z,19.10
2019-05-17T07:13:49.575Z,19.10
2019-05-17T07:15:02.128Z,19.10
2019-05-17T07:16:14.160Z,19.20
2019-05-17T07:17:16.400Z,19.20
2019-05-17T07:18:21.804Z,19.30
2019-05-17T07:19:30.259Z,19.40
2019-05-17T07:20:33.981Z,19.40
2019-05-17T07:21:40.374Z,19.50
2019-05-17T07:22:45.567Z,19.50
2019-05-17T07:23:49.919Z,19.60
2019-05-17T07:24:54.901Z,19.60
2019-05-17T07:25:59.682Z,19.70
2019-05-17T07:27:07.155Z,19.70
2019-05-17T07:28:12.830Z,19.70
2019-05-17T07:29:19.399Z,19.80
2019-05-17T07:30:24.421Z,19.80
2019-05-17T07:31:29.780Z,19.90
2019-05-17T07:32:34.201Z,19.90
2019-05-17T07:33:39.847Z,19.90
2019-05-17T07:34:50.939Z,19.90
2019-05-17T07:35:52.349Z,20.00
2019-05-17T07:36:56.551Z,20.00
2019-05-17T07:38:01.259Z,20.00
2019-05-17T07:39:06.162Z,20.00
2019-05-17T07:40:15.339Z,20.10
2019-05-17T07:41:20.406Z,20.10
2019-05-17T07:42:25.248Z,20.10
2019-05-17T07:43:31.970Z,20.10
2019-05-17T07:44:37.563Z,20.00
2019-05-17T07:45:43.369Z,20.00
2019-05-17T07:46:51.868Z,19.90
2019-05-17T07:47:54.601Z,19.90
2019-05-17T07:49:00.470Z,19.90
2019-05-17T07:50:07.826Z,19.80
2019-05-17T07:51:12.640Z,19.80
2019-05-17T07:52:16.866Z,20.20
2019-05-17T07:53:24.257Z,19.70
2019-05-17T07:54:30.287Z,19.70
2019-05-17T07:55:34.895Z,19.70
2019-05-17T07:56:40.159Z,19.70
2019-05-17T07:57:45.104Z,19.70
2019-05-17T07:58:50.903Z,19.70
2019-05-17T07:59:55.621Z,19.70
2019-05-17T08:01:02.072Z,19.70
2019-05-17T08:02:07.431Z,19.70
2019-05-17T08:03:13.289Z,19.80
2019-05-17T08:04:20.373Z,19.80
2019-05-17T08:05:24.076Z,19.90
2019-05-17T08:06:30.596Z,20.00
2019-05-17T08:07:34.697Z,20.00
2019-05-17T08:08:40.916Z,20.10
2019-05-17T08:09:46.837Z,20.10
2019-05-17T08:10:51.564Z,20.20
2019-05-17T08:11:55.697Z,20.20
2019-05-17T08:13:02.983Z,20.20
2019-05-17T08:14:07.126Z,20.20
2019-05-17T08:15:12.601Z,20.20
2019-05-17T08:16:16.774Z,20.20
2019-05-17T08:17:21.432Z,20.20
2019-05-17T08:18:29.453Z,20.20
2019-05-17T08:19:33.733Z,20.20
2019-05-17T08:20:40.820Z,20.20
2019-05-17T08:21:46.632Z,20.20
2019-05-17T08:22:52.174Z,20.20
2019-05-17T08:24:00.116Z,20.30
2019-05-17T08:25:04.440Z,20.30
2019-05-17T08:26:10.739Z,20.30
2019-05-17T08:27:15.119Z,20.30
2019-05-17T08:28:21.548Z,20.30
2019-05-17T08:29:25.786Z,20.30
2019-05-17T08:30:30.641Z,20.30
2019-05-17T08:31:34.883Z,20.30
2019-05-17T08:32:40.575Z,20.30
2019-05-17T08:33:44.868Z,20.40
2019-05-17T08:34:53.546Z,20.40
2019-05-17T08:35:59.700Z,20.40
2019-05-17T08:37:09.578Z,20.40
2019-05-17T08:38:16.456Z,20.40
2019-05-17T08:39:21.319Z,20.40
2019-05-17T08:40:30.525Z,20.50
2019-05-17T08:41:35.570Z,20.50
2019-05-17T08:42:40.669Z,20.50
2019-05-17T08:43:47.148Z,20.60
2019-05-17T08:44:53.261Z,20.60
2019-05-17T08:45:59.325Z,20.70
2019-05-17T08:47:03.755Z,20.80
2019-05-17T08:48:09.559Z,20.90
2019-05-17T08:49:13.933Z,21.00
2019-05-17T08:50:20.271Z,21.10
2019-05-17T08:51:24.385Z,21.20
2019-05-17T08:52:29.409Z,21.20
2019-05-17T08:53:33.700Z,21.30
2019-05-17T08:54:42.562Z,21.30
2019-05-17T08:55:44.052Z,21.40
2019-05-17T08:56:50.394Z,21.40
2019-05-17T08:57:54.518Z,21.40
2019-05-17T08:59:00.698Z,21.50
2019-05-17T09:00:10.579Z,21.50
2019-05-17T09:01:15.132Z,21.50
2019-05-17T09:02:21.007Z,21.60
2019-05-17T09:03:25.678Z,21.60
2019-05-17T09:04:29.820Z,21.60
2019-05-17T09:05:34.456Z,21.60
2019-05-17T09:06:39.700Z,21.70
2019-05-17T09:07:44.600Z,21.70
2019-05-17T09:08:49.944Z,21.60
2019-05-17T09:09:54.704Z,21.60
2019-05-17T09:11:00.306Z,21.60
2019-05-17T09:12:05.187Z,21.60
2019-05-17T09:13:12.359Z,21.50
2019-05-17T09:14:15.775Z,21.40
2019-05-17T09:15:20.452Z,21.40
2019-05-17T09:16:25.134Z,21.40
2019-05-17T09:17:29.986Z,21.40
2019-05-17T09:18:34.826Z,21.30
2019-05-17T09:19:39.515Z,21.30
2019-05-17T09:20:44.441Z,21.30
2019-05-17T09:21:50.331Z,21.40
2019-05-17T09:22:54.968Z,21.40
2019-05-17T09:24:02.206Z,21.40
2019-05-17T09:25:12.256Z,21.40
2019-05-17T09:26:15.004Z,21.50
2019-05-17T09:27:20.002Z,21.50
2019-05-17T09:28:25.786Z,21.50
2019-05-17T09:29:32.657Z,21.50
2019-05-17T09:30:36.990Z,21.50
2019-05-17T09:31:43.336Z,21.50
2019-05-17T09:32:50.341Z,21.60
2019-05-17T09:33:56.970Z,21.60
2019-05-17T09:35:06.156Z,21.60
2019-05-17T09:36:20.435Z,21.60
2019-05-17T09:38:32.427Z,21.60
2019-05-17T09:39:41.682Z,21.60
2019-05-17T09:40:50.276Z,21.70
2019-05-17T09:41:55.275Z,21.70
2019-05-17T09:43:04.531Z,21.70
2019-05-17T09:44:15.638Z,21.80
2019-05-17T09:45:16.101Z,21.80
2019-05-17T09:46:23.682Z,21.90
2019-05-17T09:47:30.079Z,22.00
2019-05-17T09:48:34.530Z,22.00
2019-05-17T09:49:39.527Z,22.10
2019-05-17T09:50:43.841Z,22.20
2019-05-17T09:51:49.667Z,22.20
2019-05-17T09:52:53.912Z,22.30
2019-05-17T09:54:00.054Z,22.40
2019-05-17T09:55:05.863Z,22.40
2019-05-17T09:56:11.727Z,22.50
2019-05-17T09:57:15.797Z,22.60
2019-05-17T09:58:21.832Z,22.70
2019-05-17T09:59:26.498Z,22.70
2019-05-17T10:00:36.798Z,22.80
2019-05-17T10:01:40.583Z,22.80
2019-05-17T10:02:45.157Z,23.00
2019-05-17T10:03:51.561Z,23.10
2019-05-17T10:05:00.263Z,23.20
2019-05-17T10:06:09.486Z,23.30
2019-05-17T10:07:13.505Z,23.40
2019-05-17T10:08:22.775Z,23.40
2019-05-17T10:09:30.461Z,23.50
2019-05-17T10:10:40.251Z,23.60
2019-05-17T10:11:46.452Z,23.60
2019-05-17T10:12:50.895Z,23.70
2019-05-17T10:13:58.291Z,23.70
2019-05-17T10:15:01.245Z,23.70
2019-05-17T10:16:05.748Z,23.70
2019-05-17T10:17:10.345Z,23.80
2019-05-17T10:18:14.977Z,23.80
2019-05-17T10:19:23.125Z,23.70
2019-05-17T10:20:25.519Z,23.70
2019-05-17T10:21:30.410Z,23.70
2019-05-17T10:22:34.950Z,23.60
2019-05-17T10:23:40.681Z,23.60
2019-05-17T10:24:45.277Z,23.60
2019-05-17T10:25:49.723Z,23.60
2019-05-17T10:26:54.230Z,23.60
2019-05-17T10:28:00.555Z,23.60
2019-05-17T10:29:04.798Z,23.60
2019-05-17T10:30:10.273Z,23.60
2019-05-17T10:31:15.173Z,23.60
2019-05-17T10:32:20.516Z,23.50
2019-05-17T10:33:25.317Z,23.50
2019-05-17T10:34:29.664Z,23.50
2019-05-17T10:35:34.202Z,23.50
2019-05-17T10:36:40.247Z,23.50
2019-05-17T10:37:44.795Z,23.50
2019-05-17T10:38:50.196Z,23.50
2019-05-17T10:39:54.871Z,23.50
2019-05-17T10:40:59.217Z,23.50
2019-05-17T10:42:03.990Z,23.60
2019-05-17T10:43:10.016Z,23.60
2019-05-17T10:44:14.492Z,23.60
2019-05-17T10:45:19.879Z,23.60
2019-05-17T10:46:24.639Z,23.60
2019-05-17T10:47:30.177Z,23.60
2019-05-17T10:48:37.010Z,23.70
2019-05-17T10:49:42.633Z,23.70
2019-05-17T10:50:49.503Z,23.70
2019-05-17T10:51:53.656Z,23.70
2019-05-17T10:53:00.362Z,23.70
2019-05-17T10:54:05.692Z,23.80
2019-05-17T10:55:10.899Z,23.80
2019-05-17T10:56:15.341Z,23.80
2019-05-17T10:57:19.813Z,23.90
2019-05-17T10:58:24.905Z,24.00
2019-05-17T10:59:29.374Z,24.00
2019-05-17T11:00:33.742Z,24.10
2019-05-17T11:01:38.195Z,24.20
2019-05-17T11:02:42.459Z,24.20
2019-05-17T11:03:46.942Z,24.20
2019-05-17T11:04:51.220Z,24.20
2019-05-17T11:05:55.799Z,24.20
2019-05-17T11:07:00.184Z,24.10
2019-05-17T11:08:04.660Z,24.20
2019-05-17T11:09:10.235Z,24.20
2019-05-17T11:10:16.622Z,24.20
2019-05-17T11:11:20.977Z,24.20
2019-05-17T11:12:25.428Z,24.20
2019-05-17T11:13:29.840Z,24.20
2019-05-17T11:14:42.673Z,24.20
2019-05-17T11:15:40.265Z,24.20
2019-05-17T11:16:44.664Z,24.20
2019-05-17T11:17:48.910Z,24.20
2019-05-17T11:18:53.426Z,24.10
2019-05-17T11:19:57.686Z,24.10
2019-05-17T11:21:06.359Z,24.10
2019-05-17T11:22:10.755Z,24.00
2019-05-17T11:23:15.298Z,24.00
2019-05-17T11:24:27.452Z,24.00
2019-05-17T11:25:27.382Z,24.00
2019-05-17T11:26:31.740Z,24.10
2019-05-17T11:27:36.427Z,24.20
2019-05-17T11:28:40.790Z,24.10
2019-05-17T11:29:45.233Z,24.10
2019-05-17T11:30:49.496Z,24.20
2019-05-17T11:31:53.925Z,24.20
2019-05-17T11:32:58.233Z,24.20
2019-05-17T11:34:02.711Z,24.20
2019-05-17T11:35:06.922Z,24.20
2019-05-17T11:36:13.007Z,24.20
2019-05-17T11:37:17.270Z,24.20
2019-05-17T11:38:21.725Z,24.20
2019-05-17T11:39:28.854Z,24.20
2019-05-17T11:40:33.366Z,24.20
2019-05-17T11:41:37.657Z,24.20
2019-05-17T11:42:42.102Z,24.20
2019-05-17T11:43:46.335Z,24.20
2019-05-17T11:44:50.814Z,24.30
2019-05-17T11:45:55.079Z,24.30
2019-05-17T11:46:59.610Z,24.40
2019-05-17T11:48:05.467Z,24.40
2019-05-17T11:49:10.700Z,24.40
2019-05-17T11:50:15.071Z,24.40
2019-05-17T11:51:19.579Z,24.40
2019-05-17T11:52:23.825Z,24.40
2019-05-17T11:53:28.298Z,24.40
2019-05-17T11:54:32.584Z,24.40
2019-05-17T11:55:37.032Z,24.40
2019-05-17T11:56:41.312Z,24.40
2019-05-17T11:57:45.735Z,24.30
2019-05-17T11:58:50.014Z,24.30
2019-05-17T11:59:54.600Z,24.20
2019-05-17T12:00:58.871Z,24.20
2019-05-17T12:02:03.450Z,24.10
2019-05-17T12:03:07.732Z,24.00
2019-05-17T12:04:12.165Z,23.90
2019-05-17T12:05:16.553Z,23.80
2019-05-17T12:06:21.141Z,23.70
2019-05-17T12:07:25.533Z,23.70
2019-05-17T12:08:30.069Z,23.60
2019-05-17T12:09:37.671Z,23.70
2019-05-17T12:10:41.708Z,23.60
2019-05-17T12:11:45.952Z,23.60
2019-05-17T12:12:50.460Z,23.60
2019-05-17T12:13:54.775Z,23.50
2019-05-17T12:14:59.226Z,23.50
2019-05-17T12:16:03.659Z,23.40
2019-05-17T12:17:08.158Z,23.40
2019-05-17T12:18:12.577Z,23.30
2019-05-17T12:19:17.152Z,23.20
2019-05-17T12:20:22.139Z,23.20
2019-05-17T12:21:27.832Z,23.10
2019-05-17T12:22:32.040Z,23.00
2019-05-17T12:23:36.473Z,22.90
2019-05-17T12:24:40.751Z,22.80
2019-05-17T12:25:45.534Z,22.70
2019-05-17T12:26:49.916Z,22.60
2019-05-17T12:27:54.360Z,22.50
2019-05-17T12:28:58.622Z,22.40
2019-05-17T12:30:03.966Z,22.30
2019-05-17T12:31:08.298Z,22.20
2019-05-17T12:32:16.819Z,22.20
2019-05-17T12:33:18.766Z,22.10
2019-05-17T12:34:23.210Z,22.00
2019-05-17T12:35:27.504Z,22.00
2019-05-17T12:36:32.010Z,21.90
2019-05-17T12:37:36.253Z,21.80
2019-05-17T12:38:40.772Z,21.80
2019-05-17T12:39:45.034Z,21.70
2019-05-17T12:40:49.449Z,21.70
2019-05-17T12:41:54.235Z,21.60
2019-05-17T12:42:58.890Z,21.60
2019-05-17T12:44:03.321Z,21.60
2019-05-17T12:45:08.184Z,21.60
2019-05-17T12:46:12.646Z,21.60
2019-05-17T12:47:17.079Z,21.60
2019-05-17T12:48:21.350Z,21.60
2019-05-17T12:49:25.827Z,21.70
2019-05-17T12:50:30.325Z,21.60
2019-05-17T12:51:34.762Z,21.60
2019-05-17T12:52:39.147Z,21.60
2019-05-17T12:53:43.636Z,21.60
2019-05-17T12:54:47.892Z,21.60
2019-05-17T12:55:52.467Z,21.50
2019-05-17T12:56:56.718Z,21.50
2019-05-17T12:58:01.223Z,21.50
2019-05-17T12:59:05.670Z,21.50
2019-05-17T13:00:11.359Z,21.50
2019-05-17T13:01:15.768Z,21.50
2019-05-17T13:02:20.201Z,21.50
2019-05-17T13:03:24.500Z,21.50
2019-05-17T13:04:29.028Z,21.40
2019-05-17T13:05:34.912Z,21.40
2019-05-17T13:06:39.357Z,21.30
2019-05-17T13:07:43.689Z,21.30
2019-05-17T13:08:48.150Z,21.30
2019-05-17T13:09:52.536Z,21.20
2019-05-17T13:10:58.087Z,21.20
2019-05-17T13:12:03.533Z,21.10
2019-05-17T13:13:09.717Z,21.10
2019-05-17T13:14:14.213Z,21.00
2019-05-17T13:15:18.778Z,20.90
2019-05-17T13:16:23.057Z,20.80
2019-05-17T13:17:29.767Z,20.80
2019-05-17T13:18:34.013Z,20.70
2019-05-17T13:19:38.590Z,20.70
2019-05-17T13:20:42.989Z,20.70
2019-05-17T13:21:48.027Z,20.70
2019-05-17T13:22:52.492Z,20.70
2019-05-17T13:23:57.000Z,20.60
2019-05-17T13:25:05.861Z,20.60
2019-05-17T13:26:10.381Z,20.60
2019-05-17T13:27:14.636Z,20.60
2019-05-17T13:28:20.621Z,20.60
2019-05-17T13:29:24.848Z,20.60
2019-05-17T13:30:29.439Z,20.60
2019-05-17T13:31:33.954Z,20.70
2019-05-17T13:32:39.024Z,20.70
2019-05-17T13:33:43.360Z,20.80
2019-05-17T13:34:50.218Z,20.70
2019-05-17T13:35:53.866Z,20.80
2019-05-17T13:36:58.364Z,20.70
2019-05-17T13:38:02.581Z,20.70
2019-05-17T13:39:08.328Z,20.70
2019-05-17T13:40:13.026Z,20.60
2019-05-17T13:41:17.570Z,20.60
2019-05-17T13:42:21.929Z,20.60
2019-05-17T13:43:26.396Z,20.50
2019-05-17T13:44:30.765Z,20.50
2019-05-17T13:45:35.358Z,20.50
2019-05-17T13:46:39.729Z,20.50
2019-05-17T13:47:47.148Z,20.30
2019-05-17T13:48:51.515Z,20.40
2019-05-17T13:50:01.901Z,20.40
2019-05-17T13:51:08.406Z,20.30
2019-05-17T13:52:12.851Z,20.30
2019-05-17T13:53:17.298Z,20.20
2019-05-17T13:54:21.820Z,20.20
2019-05-17T13:55:26.139Z,20.10
2019-05-17T13:56:33.014Z,20.10
2019-05-17T13:57:40.038Z,20.00
2019-05-17T13:58:46.243Z,20.00
2019-05-17T13:59:50.699Z,20.00
2019-05-17T14:00:58.568Z,20.00
2019-05-17T14:02:23.893Z,19.90